Standard City, Illinois
Current Conditions -  °F | °C
As of 5:55 PM on Friday 24 Oct 2014 (Local Time) from K3LF Reporting Station
Clear Clear  
Wind Chill: 62°   Ceiling: Unl
Heat Index: 62°   Visibility: 10mi
Dew Point: 50°   Wind: 6mph
Humidity: 65%   Direction: 180°S
Pressure: 30.01"   Gusts: NA
Location:  39.35°N, 89.78°W
Report Text: K3LF 242255Z AUTO 18005KT 10SM CLR 17/10 A3001 RMK AO2 T01660100
Loading
Personal Weather Stations






























Interactive Weather Map
Tropical Storm Tracking
New forecast layout! Learn more

10-Day Weather Forecast

Advertisements
Track Severe Weather on mobile